Tiempo atmosférico en la estación meteorológica de Lubia, Soria (1100 m.)



Fecha
DESCASC
Temp. máxima en grados centígrados (hora)
DESCASC
Temp. mínima en grados centígrados (hora)
DESCASC
Temp. media en grados centígrados
DESCASC
Racha de viento máxima en m/sg (hora)
DESCASC
Velocidad máxima media en intervalos de 10 minutos(hora)
DESCASC
Precipitaciones diarias en mm
DESCASC
Precipitaciones de 00:00 a 06:00 en mm
DESCASC
Precipitaciones de 06:00 a 12:00 en mm
DESCASC
Precipitaciones de 12:00 a 18:00 en mm
DESCASC
Precipitaciones de 18:00 a 24:00 en mm
DESCASC
28-02-2021 9.2 (14:00) -2 (07:00) 3.6 8.89 (14:10) 6.39 (17:10) 0.6 0 0 0.4 0.2
27-02-2021 16.9 (15:20) -0.4 (07:30) 8.2 8.06 (17:30) 5.28 (17:30) 0 0 0 0 0
26-02-2021 15 (15:30) 3.6 (23:59) 9.3 6.67 (14:00) 3.89 (07:10) 0 0 0 0 0
25-02-2021 13.2 (14:50) -0.3 (00:00) 6.4 5 (11:10) 3.33 (09:40) 0 0 0 0 0
24-02-2021 14.5 (15:30) -1 (-00:0) 6.8 9.17 (14:20) 5.56 (14:40) 0 0 0 0 0
23-02-2021 12.6 (16:10) 1.5 (00:00) 7.1 6.67 (15:50) 3.89 (16:00) 0 0 0 0 0
22-02-2021 6.3 (00:00) -0.1 (00:00) 3.1 10.56 (01:10) 6.67 (01:10) 9.4 4 3.2 2 0.2
21-02-2021 10.8 (13:40) 5 (00:00) 7.9 11.67 (18:20) 7.78 (18:30) 0.2 0 0 0 0.2
20-02-2021 14.4 (13:00) 3.2 (00:00) 8.8 16.39 (11:50) 9.17 (11:50) 0 0 0 0 0
19-02-2021 14.3 (16:30) 1.5 (00:00) 7.9 14.72 (15:00) 8.06 (15:00) 0 0 0 0 0
18-02-2021 14.9 (14:30) 3.4 (00:00) 9.1 14.17 (15:40) 8.61 (15:40) 0 0 0 0 0
17-02-2021 13.5 (14:40) 4.4 (00:00) 9 7.5 (16:30) 4.72 (16:40) 0 0 0 0 0
16-02-2021 15 (14:50) -0.9 (-00:0) 7.1 9.44 (13:00) 5.83 (13:30) 0 0 0 0 0
15-02-2021 13 (15:50) -2.1 (-00:0) 5.5 7.78 (15:50) 4.72 (10:10) 0 0 0 0 0
14-02-2021 14.1 (15:10) -1.1 (-00:0) 6.5 7.5 (13:30) 4.44 (14:20) 0 0 0 0 0
13-02-2021 10.1 (15:40) 1.3 (00:00) 5.7 11.67 (13:40) 6.94 (13:40) 0 0 0 0 0
12-02-2021 9.9 (16:10) 1.9 (00:00) 5.9 13.61 (08:40) 8.06 (08:40) 6.2 1 4 1.2 0
11-02-2021 11.7 (15:50) 1.7 (00:00) 6.7 10.28 (10:30) 6.39 (03:20) 0.6 0 0 0 0.6
10-02-2021 8.2 (16:00) -0.1 (00:00) 4 14.44 (06:30) 8.61 (06:30) 8.4 7 1.4 0 0
09-02-2021 5.7 (12:20) 0 (00:00) 2.8 17.22 (15:20) 10 (15:20) 16.4 3.8 2 5 5.6
08-02-2021 5.6 (15:00) 1.6 (00:00) 3.6 16.11 (12:50) 9.72 (11:00) 12.6 8 0.8 1.4 2.4
07-02-2021 6.3 (13:20) -2.9 (-00:0) 1.7 13.06 (15:50) 8.61 (15:50) 0.2 0 0 0 0.2
06-02-2021 9.1 (13:20) 2.1 (00:00) 5.6 10.28 (01:00) 5.28 (00:50) 5.2 3.4 0 1.6 0.2
05-02-2021 16.3 (15:20) 3.2 (00:00) 9.7 8.61 (13:40) 5.28 (12:20) 0 0 0 0 0
04-02-2021 14.6 (14:30) 4.9 (00:00) 9.8 10.56 (15:30) 5.83 (15:50) 1 0.4 0.6 0 0
03-02-2021 10.7 (16:20) 4.3 (00:00) 7.5 13.33 (10:40) 8.06 (11:10) 0.4 0 0 0 0.4
02-02-2021 11.8 (13:50) 6.3 (03:00) 9.1 15 (05:20) 9.44 (06:00) 0 0 0 0 0
01-02-2021 10.2 (15:20) 5.7 (00:00) 7.9 20.28 (06:20) 12.22 (07:00) 0 0 0 0 0
31-01-2021 9 (21:10) 2.7 (00:00) 5.9 18.89 (23:30) 10.83 (06:40) 1.4 0.2 0 1 0.2
30-01-2021 8.1 (14:10) 2.7 (00:00) 5.4 24.17 (13:20) 13.33 (13:40) 11 2 4.2 1.8 3

Gráficas

Temp. máximas Temp. mínimas Temp. medias Precipitaciones Rachas de viento máximas Velocidades máximas media en intervalos de 10 minutos

Datos horarios

Fecha y hora oficial Temperatura (ºC) Velocidad del viento (km/h) Dirección del viento Racha (km/h) Dirección de racha Precipitación (mm) Presión (hPa) Tendencia (hPa) Humedad (%)
2021-02-28 23:00:00 3.1 9 Sudeste 17 Sudeste 0 -- -- 94
2021-02-28 22:00:00 4 10 Sudeste 17 Sudeste 0 -- -- 96
2021-02-28 21:00:00 5.1 14 Sudeste 20 Sudeste 0 -- -- 94
2021-02-28 20:00:00 4.5 12 Sudeste 21 Este 0 -- -- 97
2021-02-28 19:00:00 5.1 14 Este 23 Este 0.2 -- -- 94
2021-02-28 18:00:00 5.1 16 Este 32 Este 0.4 -- -- 93
2021-02-28 17:00:00 6.7 19 Este 31 Este 0 -- -- 79
2021-02-28 16:00:00 8.2 9 Sudeste 22 Sur 0 -- -- 70
2021-02-28 15:00:00 9 11 Sudeste 32 Sur 0 -- -- 63
2021-02-28 14:00:00 9.2 13 Sur 28 Sudeste 0 -- -- 58
2021-02-28 13:00:00 7.3 8 Sur 21 Sudeste 0 -- -- 70
2021-02-28 12:00:00 6.9 12 Sudeste 23 Sudeste 0 -- -- 71
2021-02-28 11:00:00 7.3 6 Sudeste 19 Este 0 -- -- 70
2021-02-28 10:00:00 3.3 13 Este 24 Este 0 -- -- 82
2021-02-28 09:00:00 2.7 12 Este 15 Este 0 -- -- 82
2021-02-28 08:00:00 -0.7 10 Sudeste 13 Sudeste 0 -- -- 97
2021-02-28 07:00:00 -2 5 Este 7 Este 0 -- -- 96
2021-02-28 06:00:00 -1.1 4 Este 14 Este 0 -- -- 94
2021-02-28 05:00:00 0.1 8 Este 12 Nordeste 0 -- -- 86
2021-02-28 04:00:00 1.6 6 Este 18 Este 0 -- -- 79
2021-02-28 03:00:00 1.5 12 Este 19 Este 0 -- -- 79
2021-02-28 02:00:00 1.4 10 Este 17 Este 0 -- -- 78
2021-02-28 01:00:00 2.2 13 Este 21 Nordeste 0 -- -- 72
2021-02-28 00:00:00 2.3 10 Este 15 Este 0 -- -- 72
2021-02-27 23:00:00 3.6 6 Nordeste 14 Norte 0 -- -- 59
2021-02-27 22:00:00 4.8 8 Nordeste 15 Nordeste 0 -- -- 54
2021-02-27 21:00:00 5.9 8 Nordeste 18 Nordeste 0 -- -- 54
2021-02-27 20:00:00 6.1 11 Este 15 Este 0 -- -- 64
2021-02-27 19:00:00 8.2 12 Este 19 Este 0 -- -- 59
2021-02-27 18:00:00 12.2 12 Este 29 Este 0 -- -- 47
2021-02-27 17:00:00 16.1 13 Nordeste 24 Nordeste 0 -- -- 25
2021-02-27 16:00:00 16.8 9 Este 21 Este 0 -- -- 29
2021-02-27 15:00:00 16.6 8 Norte 21 Nordeste 0 -- -- 31
2021-02-27 14:00:00 15.8 7 Nordeste 19 Nordeste 0 -- -- 42
2021-02-27 13:00:00 14.2 10 Nordeste 18 Nordeste 0 -- -- 44
2021-02-27 12:00:00 12.3 9 Nordeste 19 Este 0 -- -- 53
2021-02-27 11:00:00 11 10 Nordeste 14 Este 0 -- -- 52
2021-02-27 10:00:00 9.3 6 Este 11 Este 0 -- -- 69
2021-02-27 09:00:00 5.9 5 Sudeste 6 Sudeste 0 -- -- 96
2021-02-27 08:00:00 0.5 3 Este 7 Este 0 -- -- 100
2021-02-27 07:00:00 0.8 0 Calma 8 Nordeste 0 -- -- 100
2021-02-27 06:00:00 1.4 5 Nordeste 9 Nordeste 0 -- -- 96
2021-02-27 05:00:00 2.3 6 Nordeste 10 Nordeste 0 -- -- 100
2021-02-27 04:00:00 2.1 5 Nordeste 7 Nordeste 0 -- -- 100
2021-02-27 03:00:00 3.3 2 Nordeste 6 Nordeste 0 -- -- 100
2021-02-27 02:00:00 3 5 Nordeste 7 Este 0 -- -- 100
2021-02-27 01:00:00 2.7 4 Este 7 Este 0 -- -- 100
2021-02-27 00:00:00 3.6 6 Este 10 Este 0 -- -- 100
2021-02-26 23:00:00 4.4 7 Este 9 Este 0 -- -- 99
2021-02-26 22:00:00 5 6 Este 10 Este 0 -- -- 97
2021-02-26 21:00:00 6.4 8 Este 18 Este 0 -- -- 91
2021-02-26 20:00:00 7.6 9 Nordeste 18 Este 0 -- -- 86
2021-02-26 19:00:00 9 10 Este 20 Este 0 -- -- 80
2021-02-26 18:00:00 12 8 Este 14 Nordeste 0 -- -- 49
2021-02-26 17:00:00 13.7 6 Este 15 Este 0 -- -- 48
2021-02-26 16:00:00 15 8 Este 21 Sudeste 0 -- -- 44
2021-02-26 15:00:00 14.7 11 Sudeste 19 Este 0 -- -- 46
2021-02-26 14:00:00 13 12 Nordeste 24 Este 0 -- -- 56
2021-02-26 13:00:00 12.8 10 Sudeste 18 Sudeste 0 -- -- 60
2021-02-26 12:00:00 10.2 9 Este 22 Este 0 -- -- 72
2021-02-26 11:00:00 7.5 12 Sudeste 21 Este 0 -- -- 85
2021-02-26 10:00:00 6.3 12 Este 21 Sudeste 0 -- -- 93
2021-02-26 09:00:00 5.3 10 Este 15 Este 0 -- -- 99
2021-02-26 08:00:00 4.8 11 Este 23 Este 0 -- -- 99
2021-02-26 07:00:00 4.5 12 Este 21 Este 0 -- -- 99
2021-02-26 06:00:00 4.8 12 Este 20 Este 0 -- -- 99
2021-02-26 05:00:00 4.5 8 Este 15 Nordeste 0 -- -- 97
2021-02-26 04:00:00 4.7 10 Este 16 Este 0 -- -- 94
2021-02-26 03:00:00 5 11 Este 16 Este 0 -- -- 92
2021-02-26 02:00:00 5 10 Este 13 Este 0 -- -- 90
2021-02-26 01:00:00 5.3 8 Nordeste 13 Este 0 -- -- 88
2021-02-26 00:00:00 5.5 9 Este 13 Este 0 -- -- 89
2021-02-25 23:00:00 4.5 3 Norte 11 Este 0 -- -- 93
2021-02-25 22:00:00 5.8 4 Este 12 Nordeste 0 -- -- 92
2021-02-25 21:00:00 6.7 4 Este 16 Este 0 -- -- 82
2021-02-25 20:00:00 7.3 9 Este 11 Este 0 -- -- 75
2021-02-25 19:00:00 8.6 3 Nordeste 7 Este 0 -- -- 71
2021-02-25 18:00:00 10.8 5 Este 8 Este 0 -- -- 60
2021-02-25 17:00:00 12 5 Sudeste 14 Sudeste 0 -- -- 55
2021-02-25 16:00:00 12.3 9 Sudeste 15 Sur 0 -- -- 50
2021-02-25 15:00:00 13 6 Sudeste 14 Sudeste 0 -- -- 50
2021-02-25 14:00:00 12.7 8 Sudoeste 14 Sudoeste 0 -- -- 51
2021-02-25 13:00:00 11.6 7 Sudeste 12 Nordeste 0 -- -- 55
2021-02-25 12:00:00 11.1 6 Sur 18 Sudeste 0 -- -- 57
2021-02-25 11:00:00 10.5 4 Sudeste 15 Sur 0 -- -- 57
2021-02-25 10:00:00 5.8 10 Este 16 Este 0 -- -- 83
2021-02-25 09:00:00 2.8 9 Este 12 Este 0 -- -- 100
2021-02-25 08:00:00 0.1 4 Este 8 Este 0 -- -- 100
2021-02-25 07:00:00 0.8 4 Nordeste 12 Este 0 -- -- 98
2021-02-25 06:00:00 1.6 7 Sudeste 14 Sudeste 0 -- -- 99
2021-02-25 05:00:00 1.1 6 Este 8 Sudeste 0 -- -- 99
2021-02-25 04:00:00 2.4 9 Sudeste 14 Sudeste 0 -- -- 98
2021-02-25 03:00:00 3 7 Sudeste 15 Sur 0 -- -- 94
2021-02-25 02:00:00 3.6 9 Sur 14 Sudoeste 0 -- -- 93
2021-02-25 01:00:00 3.2 4 Oeste 13 Sur 0 -- -- 90
2021-02-25 00:00:00 3.3 0 Calma 12 Sur 0 -- -- 94
2021-02-24 23:00:00 5.2 10 Sur 15 Sudeste 0 -- -- 88
2021-02-24 22:00:00 6.4 5 Sur 12 Sur 0 -- -- 87
2021-02-24 21:00:00 7.4 7 Sur 18 Sudoeste 0 -- -- 82
2021-02-24 20:00:00 7.9 7 Sudoeste 13 Sur 0 -- -- 78
2021-02-24 19:00:00 9.6 6 Sudoeste 21 Sur 0 -- -- 71
2021-02-24 18:00:00 12.8 11 Sur 25 Sur 0 -- -- 58
2021-02-24 17:00:00 14.2 16 Sur 32 Sudoeste 0 -- -- 50
2021-02-24 16:00:00 14.2 17 Sudoeste 31 Sur 0 -- -- 53
2021-02-24 15:00:00 14.1 19 Sudoeste 33 Sudoeste 0 -- -- 53
2021-02-24 14:00:00 13.4 15 Sur 30 Sudoeste 0 -- -- 60
2021-02-24 13:00:00 12.4 13 Sur 27 Sudeste 0 -- -- 62
2021-02-24 12:00:00 10.5 14 Sur 24 Sur 0 -- -- 68
2021-02-24 11:00:00 9.7 7 Este 12 Sudeste 0 -- -- 71
2021-02-24 10:00:00 7.6 6 Sudeste 9 Sudeste 0 -- -- 88
2021-02-24 09:00:00 2.8 7 Sudeste 9 Este 0 -- -- 100
2021-02-24 08:00:00 -0.9 5 Este 7 Este 0 -- -- 100
2021-02-24 07:00:00 0.1 4 Sudoeste 8 Oeste 0 -- -- 100
2021-02-24 06:00:00 0 0 Calma 4 Nordeste 0 -- -- 100
2021-02-24 05:00:00 -0.4 3 Nordeste 10 Sudeste 0 -- -- 100
2021-02-24 04:00:00 0.5 9 Sudeste 12 Sudeste 0 -- -- 100
2021-02-24 03:00:00 2 6 Sudeste 12 Sudeste 0 -- -- 100
2021-02-24 02:00:00 0.9 6 Sudeste 9 Sudeste 0 -- -- 100
2021-02-24 01:00:00 1.3 7 Sudeste 9 Sudeste 0 -- -- 100
2021-02-24 00:00:00 2 6 Sudeste 9 Sudeste 0 -- -- 100
2021-02-23 23:00:00 3 7 Este 9 Sur 0 -- -- 93
2021-02-23 22:00:00 3 4 Sur 8 Sur 0 -- -- 98
2021-02-23 21:00:00 4.9 5 Sur 8 Sudoeste 0 -- -- 89
2021-02-23 20:00:00 6.3 6 Sur 10 Sur 0 -- -- 85
2021-02-23 19:00:00 6.5 6 Sur 12 Sudoeste 0 -- -- 85
2021-02-23 18:00:00 10.3 7 Sur 22 Sudeste 0 -- -- 67
2021-02-23 17:00:00 11.5 10 Sur 21 Sudeste 0 -- -- 62
2021-02-23 16:00:00 12.2 14 Sur 24 Sudeste 0 -- -- 58
2021-02-23 15:00:00 9.9 12 Sur 23 Sudeste 0 -- -- 69
2021-02-23 14:00:00 9.7 12 Sudeste 22 Sudeste 0 -- -- 69
2021-02-23 13:00:00 9.1 10 Sur 20 Sur 0 -- -- 72
2021-02-23 12:00:00 7 12 Sudeste 19 Sudeste 0 -- -- 80
2021-02-23 11:00:00 4.1 10 Sudeste 19 Sudeste 0 -- -- 92
2021-02-23 10:00:00 3 7 Sudeste 13 Sudeste 0 -- -- 97
2021-02-23 09:00:00 2.4 4 Sudeste 12 Este 0 -- -- 98
2021-02-23 08:00:00 2 8 Sudeste 14 Sudeste 0 -- -- 98
2021-02-23 07:00:00 2.1 7 Sudeste 12 Sudeste 0 -- -- 99
2021-02-23 06:00:00 2.1 6 Sudeste 14 Sudeste 0 -- -- 100
2021-02-23 05:00:00 2.4 6 Sudeste 11 Este 0 -- -- 100
2021-02-23 04:00:00 2.5 10 Este 13 Este 0 -- -- 100
2021-02-23 03:00:00 2.7 5 Sudeste 8 Sudeste 0 -- -- 100
2021-02-23 02:00:00 2.6 3 Este 5 Este 0 -- -- 100
2021-02-23 01:00:00 2.1 0 Calma 10 Sudoeste 0 -- -- 100
2021-02-23 00:00:00 1.8 5 Sudoeste 7 Sur 0 -- -- 100
2021-02-22 23:00:00 1.8 4 Sur 8 Sudeste 0 -- -- 100
2021-02-22 22:00:00 1.3 5 Sur 5 Sur 0 -- -- 99
2021-02-22 21:00:00 3.3 2 Sudeste 5 Oeste 0 -- -- 99
2021-02-22 20:00:00 3.5 2 Noroeste -- -- 0.2 -- -- 99
2021-02-22 19:00:00 3.7 0 Calma 8 Oeste 0 -- -- 98
2021-02-22 18:00:00 4 3 Noroeste 13 Oeste 0.4 -- -- 97
2021-02-22 17:00:00 3.8 4 Norte 16 Noroeste 1 -- -- 97
2021-02-22 16:00:00 4.9 10 Oeste 21 Oeste 0 -- -- 94
2021-02-22 15:00:00 4.2 13 Oeste 20 Oeste 0 -- -- 96
2021-02-22 14:00:00 3.9 12 Oeste 22 Oeste 0.4 -- -- 98
2021-02-22 13:00:00 3 14 Oeste 22 Oeste 0.2 -- -- 98
2021-02-22 12:00:00 1.2 13 Oeste 20 Oeste 1.2 -- -- 99
2021-02-22 11:00:00 0.3 13 Oeste 22 Oeste 0.8 -- -- 100
2021-02-22 10:00:00 0.1 7 Oeste 19 Oeste 0.2 -- -- 100
2021-02-22 09:00:00 0.1 14 Oeste 20 Oeste 0.2 -- -- 100
2021-02-22 08:00:00 -0.1 12 Oeste 24 Oeste 0.4 -- -- 100
2021-02-22 07:00:00 -0.1 14 Oeste 32 Oeste 0.4 -- -- 100
2021-02-22 06:00:00 0 19 Oeste 34 Oeste 0 -- -- 100
2021-02-22 05:00:00 0.1 23 Oeste 37 Oeste 0.2 -- -- 100
2021-02-22 04:00:00 0.1 22 Oeste 34 Oeste 0.2 -- -- 100
2021-02-22 03:00:00 0.2 22 Oeste 36 Oeste 0.2 -- -- 99
2021-02-22 02:00:00 0.8 23 Oeste 38 Oeste 0.6 -- -- 99
2021-02-22 01:00:00 1.8 23 Oeste 36 Oeste 2.8 -- -- 98
2021-02-22 00:00:00 6.3 14 Sudeste 31 Sudeste 0.2 -- -- 96
2021-02-21 23:00:00 6.6 18 Este 29 Sudeste 0 -- -- 92
2021-02-21 22:00:00 6.5 18 Sudeste 34 Sudeste 0 -- -- 92
2021-02-21 21:00:00 6.7 23 Este 35 Este 0 -- -- 92
2021-02-21 20:00:00 6.6 18 Este 33 Este 0 -- -- 94
2021-02-21 19:00:00 6.7 21 Este 42 Este 0 -- -- 95
2021-02-21 18:00:00 7.7 25 Este 38 Este 0 -- -- 88
2021-02-21 17:00:00 8 18 Este 35 Este 0 -- -- 87
2021-02-21 16:00:00 7.3 17 Este 30 Este 0 -- -- 91
2021-02-21 15:00:00 8.6 14 Este 30 Sudeste 0 -- -- 76
2021-02-21 14:00:00 10.8 23 Sudeste 40 Este 0 -- -- 62
2021-02-21 13:00:00 9.1 21 Este 33 Sudeste 0 -- -- 66
2021-02-21 12:00:00 8.2 19 Este 28 Sudeste 0 -- -- 67
2021-02-21 11:00:00 7.7 18 Sudeste 28 Este 0 -- -- 65
2021-02-21 10:00:00 7.1 10 Este 26 Sudeste 0 -- -- 70
2021-02-21 09:00:00 6.5 17 Este 28 Este 0 -- -- 69
2021-02-21 08:00:00 5.6 19 Este 27 Este 0 -- -- 72
2021-02-21 07:00:00 5.7 16 Sudeste 23 Sudeste 0 -- -- 72
2021-02-21 06:00:00 5.5 12 Sudeste 18 Sudeste 0 -- -- 74
2021-02-21 05:00:00 5.1 12 Sudeste 20 Sudeste 0 -- -- 73
2021-02-21 04:00:00 5.8 13 Sudeste 20 Sudeste 0 -- -- 68
2021-02-21 03:00:00 6 14 Sudeste 21 Sudeste 0 -- -- 68
2021-02-21 02:00:00 5.7 10 Sudeste 14 Sudeste 0 -- -- 69
2021-02-21 01:00:00 5.5 10 Sudeste 14 Sudeste 0 -- -- 66
2021-02-21 00:00:00 7.4 5 Sudeste 18 Sudeste 0 -- -- 60
2021-02-20 23:00:00 9.1 13 Sudeste 24 Sudeste 0 -- -- 53
2021-02-20 22:00:00 9.1 5 Sudeste 16 Este 0 -- -- 49
2021-02-20 21:00:00 10.6 5 Sur 24 Sudoeste 0 -- -- 41
2021-02-20 20:00:00 11.2 11 Sur 18 Sudeste 0 -- -- 38
2021-02-20 19:00:00 10.2 6 Sur 18 Sur 0 -- -- 41
2021-02-20 18:00:00 11.8 10 Sur 27 Sur 0 -- -- 35
2021-02-20 17:00:00 12.7 16 Sur 35 Sudoeste 0 -- -- 32
2021-02-20 16:00:00 13.4 16 Sur 41 Sur 0 -- -- 34
2021-02-20 15:00:00 13.3 18 Sur 38 Sur 0 -- -- 35
2021-02-20 14:00:00 12.9 21 Sur 54 Sur 0 -- -- 43
2021-02-20 13:00:00 14.4 28 Sur 58 Sur 0 -- -- 38
2021-02-20 12:00:00 13.6 28 Sur 59 Sudoeste 0 -- -- 39
2021-02-20 11:00:00 10.5 21 Sur 42 Sur 0 -- -- 51
2021-02-20 10:00:00 10.1 9 Sudeste 24 Sudeste 0 -- -- 55
2021-02-20 09:00:00 5 10 Sudeste 16 Sudeste 0 -- -- 72
2021-02-20 08:00:00 3.9 8 Sudeste 15 Sudeste 0 -- -- 73
2021-02-20 07:00:00 4.1 9 Sudeste 17 Sudeste 0 -- -- 67
2021-02-20 06:00:00 5 12 Sudeste 19 Sudeste 0 -- -- 64
2021-02-20 05:00:00 4.5 9 Sur 20 Sur 0 -- -- 64
2021-02-20 04:00:00 5.2 12 Sur 22 Sur 0 -- -- 61
2021-02-20 03:00:00 6 12 Sur 20 Sur 0 -- -- 60
2021-02-20 02:00:00 4.9 10 Sudeste 16 Sur 0 -- -- 66
2021-02-20 01:00:00 5.5 11 Sudeste 17 Sudeste 0 -- -- 62
2021-02-20 00:00:00 4.4 8 Sur 12 Sur 0 -- -- 69
2021-02-19 23:00:00 6.7 10 Sur 14 Sur 0 -- -- 60
2021-02-19 22:00:00 6.9 8 Sur 15 Sur 0 -- -- 57
2021-02-19 21:00:00 8.3 10 Sudoeste 21 Sur 0 -- -- 52
2021-02-19 20:00:00 9.2 11 Sudoeste 24 Sudoeste 0 -- -- 49
2021-02-19 19:00:00 10.1 14 Sudoeste 32 Sur 0 -- -- 45
2021-02-19 18:00:00 12.5 17 Sudoeste 50 Sur 0 -- -- 38
2021-02-19 17:00:00 13.9 22 Sudoeste 50 Sudoeste 0 -- -- 33
2021-02-19 16:00:00 14.1 26 Sudoeste 51 Sudoeste 0 -- -- 36
2021-02-19 15:00:00 13.7 29 Sudoeste 53 Sudoeste 0 -- -- 35
2021-02-19 14:00:00 13.3 23 Sudoeste 43 Oeste 0 -- -- 41
2021-02-19 13:00:00 12.7 20 Sur 40 Sur 0 -- -- 46
2021-02-19 12:00:00 11.5 22 Sudoeste 36 Sur 0 -- -- 53
2021-02-19 11:00:00 10.1 17 Sur 33 Sudoeste 0 -- -- 62
2021-02-19 10:00:00 7.5 15 Sur 26 Sudoeste 0 -- -- 75
2021-02-19 09:00:00 4 9 Sur 17 Sur 0 -- -- 84
2021-02-19 08:00:00 1.7 10 Sur 14 Sur 0 -- -- 83
2021-02-19 07:00:00 1.9 8 Sudoeste 18 Oeste 0 -- -- 77
2021-02-19 06:00:00 3.9 13 Oeste 18 Oeste 0 -- -- 70
2021-02-19 05:00:00 3.3 9 Sudoeste 17 Sudoeste 0 -- -- 75
2021-02-19 04:00:00 3.5 9 Sudoeste 18 Sudoeste 0 -- -- 74
2021-02-19 03:00:00 3.5 10 Sudoeste 17 Sudoeste 0 -- -- 72
2021-02-19 02:00:00 3.5 8 Sudoeste 17 Sudoeste 0 -- -- 72
2021-02-19 01:00:00 4.3 9 Sudoeste 16 Sudoeste 0 -- -- 70
2021-02-19 00:00:00 4.7 10 Sudoeste 14 Sudoeste 0 -- -- 72
2021-02-18 23:00:00 4.9 9 Sudoeste 13 Sudoeste 0 -- -- 73
2021-02-18 22:00:00 5.8 9 Sudoeste 16 Sudoeste 0 -- -- 73
2021-02-18 21:00:00 6.8 9 Sudoeste 13 Sudoeste 0 -- -- 70
2021-02-18 20:00:00 9 8 Sudoeste 17 Sudoeste 0 -- -- 62
2021-02-18 19:00:00 10.2 10 Sudoeste 23 Sur 0 -- -- 59
2021-02-18 18:00:00 11 14 Sudoeste 32 Oeste 0 -- -- 56
2021-02-18 17:00:00 13.2 16 Oeste 39 Oeste 0 -- -- 39
2021-02-18 16:00:00 12.8 22 Oeste 51 Oeste 0 -- -- 39
2021-02-18 15:00:00 14.1 15 Sudoeste 37 Sudoeste 0 -- -- 42
2021-02-18 14:00:00 14.6 19 Sudoeste 35 Sudoeste 0 -- -- 40
2021-02-18 13:00:00 14 19 Sudoeste 39 Sudoeste 0 -- -- 43
2021-02-18 12:00:00 11.8 21 Sudoeste 36 Sudoeste 0 -- -- 52
2021-02-18 11:00:00 9.8 17 Sudoeste 31 Sudoeste 0 -- -- 64
2021-02-18 10:00:00 7.1 13 Sur 24 Sudoeste 0 -- -- 75
2021-02-18 09:00:00 6 11 Sur 18 Sur 0 -- -- 80
2021-02-18 08:00:00 3.6 10 Sur 20 Sur 0 -- -- 89
2021-02-18 07:00:00 3.8 9 Sur 16 Sur 0 -- -- 88
2021-02-18 06:00:00 4.9 9 Sur 21 Sudoeste 0 -- -- 83
2021-02-18 05:00:00 4.3 10 Sur 18 Sur 0 -- -- 86
2021-02-18 04:00:00 5 11 Sur 18 Sur 0 -- -- 82
2021-02-18 03:00:00 6.2 11 Sur 23 Sur 0 -- -- 77
2021-02-18 02:00:00 6.2 11 Sur 19 Sudoeste 0 -- -- 76
2021-02-18 01:00:00 7.2 11 Sur 21 Sudoeste 0 -- -- 71
2021-02-18 00:00:00 6.4 9 Sur 15 Sur 0 -- -- 73
2021-02-17 23:00:00 5.9 8 Sur 14 Sur 0 -- -- 79
2021-02-17 22:00:00 6.8 10 Sur 20 Sudoeste 0 -- -- 77
2021-02-17 21:00:00 7.3 9 Sur 24 Sudoeste 0 -- -- 75
2021-02-17 20:00:00 8.4 13 Sur 24 Sudoeste 0 -- -- 75
2021-02-17 19:00:00 9.1 8 Sur 14 Sur 0 -- -- 77
2021-02-17 18:00:00 11.2 8 Sur 23 Sudoeste 0 -- -- 71
2021-02-17 17:00:00 11.9 15 Sur 27 Sur 0 -- -- 67
2021-02-17 16:00:00 12.5 11 Sudoeste 22 Sudoeste 0 -- -- 63
2021-02-17 15:00:00 13.1 12 Sudoeste 24 Sudoeste 0 -- -- 63
2021-02-17 14:00:00 11.4 14 Sur 24 Sudoeste 0 -- -- 69
2021-02-17 13:00:00 10.9 10 Sur 20 Sudoeste 0 -- -- 71
2021-02-17 12:00:00 10.6 6 Sudoeste 15 Sudoeste 0 -- -- 74
2021-02-17 11:00:00 9.4 8 Sur 14 Sur 0 -- -- 80
2021-02-17 10:00:00 6.6 6 Sudoeste 13 Sur 0 -- -- 88
2021-02-17 09:00:00 5.2 8 Sur 12 Sudoeste 0 -- -- 92
2021-02-17 08:00:00 5.6 7 Oeste 11 Sudoeste 0 -- -- 93
2021-02-17 07:00:00 5 6 Sudoeste 12 Sudoeste 0 -- -- 92
2021-02-17 06:00:00 4.8 8 Sudoeste 13 Sudoeste 0 -- -- 95
2021-02-17 05:00:00 4.9 7 Sur 11 Sur 0 -- -- 96
2021-02-17 04:00:00 5 7 Sudoeste 14 Noroeste 0 -- -- 95
2021-02-17 03:00:00 6.5 6 Oeste 15 Noroeste 0 -- -- 90
2021-02-17 02:00:00 7 9 Oeste 18 Oeste 0 -- -- 86
2021-02-17 01:00:00 7.6 10 Noroeste 17 Noroeste 0 -- -- 83
2021-02-17 00:00:00 6.3 7 Oeste 13 Sudoeste 0 -- -- 85
2021-02-16 23:00:00 6.1 8 Sudoeste 13 Sudoeste 0 -- -- 82
2021-02-16 22:00:00 7.2 7 Sudoeste 16 Oeste 0 -- -- 78
2021-02-16 21:00:00 7.7 11 Oeste 18 Oeste 0 -- -- 74
2021-02-16 20:00:00 8.3 8 Oeste 19 Oeste 0 -- -- 67
2021-02-16 19:00:00 9.8 12 Oeste 20 Oeste 0 -- -- 67
2021-02-16 18:00:00 11 9 Sudoeste 18 Oeste 0 -- -- 64
2021-02-16 17:00:00 12.2 9 Oeste 28 Sudoeste 0 -- -- 64
2021-02-16 16:00:00 13.5 14 Sudoeste 31 Sudoeste 0 -- -- 58
2021-02-16 15:00:00 14.5 18 Sur 31 Sur 0 -- -- 56
2021-02-16 14:00:00 13.8 17 Sudoeste 33 Sudoeste 0 -- -- 60
2021-02-16 13:00:00 12.4 20 Sudoeste 34 Sudoeste 0 -- -- 61
2021-02-16 12:00:00 10.8 13 Sur 23 Sur 0 -- -- 68
2021-02-16 11:00:00 10 12 Sur 24 Sudoeste 0 -- -- 73
2021-02-16 10:00:00 5.4 10 Sur 19 Sur 0 -- -- 95
2021-02-16 09:00:00 1.9 9 Sudeste 14 Sur 0 -- -- 100
2021-02-16 08:00:00 0 5 Sudeste 10 Sudeste 0 -- -- 100
2021-02-16 07:00:00 -0.3 6 Sudeste 10 Sudeste 0 -- -- 100
2021-02-16 06:00:00 -0.2 6 Sudeste 9 Sudeste 0 -- -- 100
2021-02-16 05:00:00 0.2 5 Este 9 Este 0 -- -- 100
2021-02-16 04:00:00 0.2 3 Este 9 Sudeste 0 -- -- 100
2021-02-16 03:00:00 1.2 8 Sudeste 12 Sudeste 0 -- -- 100
2021-02-16 02:00:00 1.1 10 Sudeste 12 Sudeste 0 -- -- 99
2021-02-16 01:00:00 2.9 8 Sudeste 12 Sudeste 0 -- -- 98
2021-02-16 00:00:00 3.8 8 Sudeste 13 Sudeste 0 -- -- 98
2021-02-15 23:00:00 4.8 8 Sudeste 15 Sur 0 -- -- 96
2021-02-15 22:00:00 4.9 8 Sudeste 20 Sur 0 -- -- 95
2021-02-15 21:00:00 6.2 13 Sur 22 Sur 0 -- -- 90
2021-02-15 20:00:00 7 13 Sur 27 Sur 0 -- -- 86
2021-02-15 19:00:00 8 11 Sur 22 Sur 0 -- -- 83
2021-02-15 18:00:00 10.3 12 Sudoeste 22 Sur 0 -- -- 72
2021-02-15 17:00:00 12.6 17 Sur 27 Sur 0 -- -- 60
2021-02-15 16:00:00 12.6 14 Sur 28 Sudeste 0 -- -- 59
2021-02-15 15:00:00 12.3 14 Sur 25 Sudeste 0 -- -- 64
2021-02-15 14:00:00 11.2 12 Sur 23 Sur 0 -- -- 66
2021-02-15 13:00:00 9.9 13 Sur 23 Sur 0 -- -- 71
2021-02-15 12:00:00 9.1 14 Sur 21 Sur 0 -- -- 75
2021-02-15 11:00:00 5.7 13 Sur 25 Sur 0 -- -- 92
2021-02-15 10:00:00 4.2 15 Sur 26 Sur 0 -- -- 100
2021-02-15 09:00:00 2.9 10 Sur 18 Sur 0 -- -- 100
2021-02-15 08:00:00 -0.3 5 Sudeste 8 Sudeste 0 -- -- 100
2021-02-15 07:00:00 0.2 4 Sudeste 8 Sudeste 0 -- -- 100
2021-02-15 06:00:00 -0.4 4 Este 8 Este 0 -- -- 100
2021-02-15 05:00:00 -1.8 3 Este 5 Este 0 -- -- 100
2021-02-15 04:00:00 0.5 4 Sudeste 9 Sur 0 -- -- 100
2021-02-15 03:00:00 1.3 7 Sudeste 10 Sur 0 -- -- 100
2021-02-15 02:00:00 1.5 6 Sudeste 10 Sudeste 0 -- -- 100
2021-02-15 01:00:00 1.9 8 Sudeste 12 Sudeste 0 -- -- 100
2021-02-15 00:00:00 2.9 4 Este 10 Sudeste 0 -- -- 99
2021-02-14 23:00:00 3.3 8 Sudeste 13 Sudeste 0 -- -- 96
2021-02-14 22:00:00 4.2 6 Sudeste 14 Sur 0 -- -- 92
2021-02-14 21:00:00 6.5 9 Sur 16 Sur 0 -- -- 83
2021-02-14 20:00:00 7.6 10 Sur 16 Sur 0 -- -- 79
2021-02-14 19:00:00 9 10 Sur 21 Sur 0 -- -- 72
2021-02-14 18:00:00 10.8 13 Sur 22 Sur 0 -- -- 66
2021-02-14 17:00:00 11.9 10 Sur 22 Sudeste 0 -- -- 61
2021-02-14 16:00:00 12.6 10 Sur 23 Sudeste 0 -- -- 60
2021-02-14 15:00:00 13.8 13 Sur 27 Sur 0 -- -- 55
2021-02-14 14:00:00 12.7 12 Sudoeste 27 Sur 0 -- -- 61
2021-02-14 13:00:00 11.6 13 Sur 22 Sur 0 -- -- 58
2021-02-14 12:00:00 11.1 7 Sudeste 12 Este 0 -- -- 69
2021-02-14 11:00:00 9.1 5 Sur 10 Sur 0 -- -- 79
2021-02-14 10:00:00 9 3 Sur 6 Sudeste 0 -- -- 83
2021-02-14 09:00:00 3.6 2 Sudoeste 4 Sur 0 -- -- 100
2021-02-14 08:00:00 -0.9 3 Sudoeste 5 Este 0 -- -- 100
2021-02-14 07:00:00 -1.1 5 Este 7 Este 0 -- -- 100
2021-02-14 06:00:00 -0.6 3 Noroeste 5 Norte 0 -- -- 100
2021-02-14 05:00:00 0.9 2 Norte 8 Norte 0 -- -- 100
2021-02-14 04:00:00 1.6 6 Noroeste 11 Noroeste 0 -- -- 100
2021-02-14 03:00:00 2.3 8 Noroeste 15 Oeste 0 -- -- 99
2021-02-14 02:00:00 2.3 10 Oeste 14 Oeste 0 -- -- 100
2021-02-14 01:00:00 2.3 8 Oeste 13 Oeste 0 -- -- 99
2021-02-14 00:00:00 2.1 6 Oeste 11 Noroeste 0 -- -- 96
2021-02-13 23:00:00 2.9 6 Noroeste 8 Oeste 0 -- -- 99
2021-02-13 22:00:00 3.7 3 Noroeste 13 Noroeste 0 -- -- 93
2021-02-13 21:00:00 5 9 Oeste 17 Oeste 0 -- -- 91
2021-02-13 20:00:00 5.5 9 Oeste 23 Oeste 0 -- -- 90
2021-02-13 19:00:00 6.1 12 Oeste 28 Oeste 0 -- -- 86
2021-02-13 18:00:00 8.2 19 Oeste 31 Oeste 0 -- -- 76
2021-02-13 17:00:00 9.3 22 Oeste 36 Oeste 0 -- -- 69
2021-02-13 16:00:00 9.5 20 Oeste 32 Oeste 0 -- -- 68
2021-02-13 15:00:00 9.5 18 Oeste 36 Oeste 0 -- -- 63
2021-02-13 14:00:00 7.2 24 Oeste 42 Oeste 0 -- -- 77
2021-02-13 13:00:00 6.2 19 Oeste 32 Oeste 0 -- -- 89
2021-02-13 08:00:00 2.7 17 Oeste 29 Oeste 0 -- -- 100
2021-02-13 07:00:00 2.6 13 Oeste 25 Noroeste 0 -- -- 100
2021-02-13 06:00:00 1.5 5 Sudoeste 12 Oeste 0 -- -- 100
2021-02-13 05:00:00 2.2 4 Sudoeste 10 Sudoeste 0 -- -- 100
2021-02-13 04:00:00 2.3 5 Noroeste 21 Oeste 0 -- -- 100
2021-02-13 03:00:00 3.1 12 Noroeste 23 Oeste 0 -- -- 100
2021-02-13 02:00:00 3.1 16 Oeste 24 Oeste 0 -- -- 98
2021-02-13 01:00:00 2.1 7 Oeste 14 Noroeste 0 -- -- 96
2021-02-13 00:00:00 2 9 Oeste 15 Oeste 0 -- -- 97
2021-02-12 23:00:00 2.4 5 Oeste 13 Oeste 0 -- -- 97
2021-02-12 22:00:00 3.1 6 Sudoeste 17 Oeste 0 -- -- 92
2021-02-12 21:00:00 4.8 12 Noroeste 22 Noroeste 0 -- -- 89
2021-02-12 20:00:00 5.7 12 Noroeste 30 Noroeste 0 -- -- 88
2021-02-12 19:00:00 6.5 14 Noroeste 32 Oeste 0 -- -- 86
2021-02-12 18:00:00 7.3 17 Noroeste 36 Noroeste 0 -- -- 86
2021-02-12 17:00:00 8.3 27 Oeste 44 Oeste 0 -- -- 85
2021-02-12 16:00:00 9.7 24 Oeste 43 Oeste 0 -- -- 81
2021-02-12 15:00:00 8.2 26 Oeste 43 Oeste 0.2 -- -- 87
2021-02-12 14:00:00 6.9 24 Oeste 37 Sudoeste 0.6 -- -- 96
2021-02-12 13:00:00 6.7 26 Oeste 43 Oeste 0.4 -- -- 94
2021-02-12 12:00:00 6.2 22 Oeste 48 Oeste 0.2 -- -- 96
2021-02-12 11:00:00 6.4 21 Oeste 45 Oeste 0.4 -- -- 96
2021-02-12 10:00:00 6.2 23 Oeste 41 Oeste 0.4 -- -- 98
2021-02-12 09:00:00 6 26 Oeste 49 Oeste 0.6 -- -- 98
2021-02-12 08:00:00 6.3 14 Sudoeste 39 Oeste 1.2 -- -- 100
2021-02-12 07:00:00 6.3 21 Oeste 37 Oeste 1.2 -- -- 98
2021-02-12 06:00:00 6.2 21 Oeste 35 Oeste 0.8 -- -- 98
2021-02-12 05:00:00 7.1 14 Sudoeste 28 Sudoeste 0 -- -- 95
2021-02-12 04:00:00 6.9 14 Sudoeste 22 Sudoeste 0 -- -- 97
2021-02-12 03:00:00 6.8 10 Sur 22 Sudoeste 0.2 -- -- 99
2021-02-12 02:00:00 7 12 Sudoeste 22 Sudoeste 0 -- -- 100
2021-02-12 01:00:00 6.7 11 Sur 19 Sur 0 -- -- 100
2021-02-12 00:00:00 6.8 9 Sudoeste 18 Sudoeste 0 -- -- 99
2021-02-11 23:00:00 7 10 Sudoeste 22 Sudoeste 0 -- -- 99
2021-02-11 22:00:00 7.4 10 Sudoeste 17 Sudoeste 0 -- -- 98
2021-02-11 21:00:00 7.7 9 Sur 22 Sudoeste 0 -- -- 99
2021-02-11 20:00:00 7.7 13 Sudoeste 24 Sudoeste 0.2 -- -- 100
2021-02-11 19:00:00 7.7 9 Sudoeste 23 Sudoeste 0.4 -- -- 99
2021-02-11 18:00:00 8.1 10 Sur 22 Sudoeste 0 -- -- 98
2021-02-11 17:00:00 9 15 Sur 25 Sur 0 -- -- 89
2021-02-11 16:00:00 11.5 14 Sudoeste 24 Oeste 0 -- -- 79
2021-02-11 15:00:00 10.3 14 Oeste 29 Oeste 0 -- -- 90
2021-02-11 14:00:00 11.5 18 Oeste 33 Oeste 0 -- -- 85
2021-02-11 13:00:00 9 19 Oeste 30 Oeste 0 -- -- 92
2021-02-11 12:00:00 8.4 17 Oeste 31 Oeste 0 -- -- 98
2021-02-11 11:00:00 7.3 18 Oeste 37 Oeste 0 -- -- 100
2021-02-11 10:00:00 6.5 16 Oeste 30 Oeste 0 -- -- 100
2021-02-11 09:00:00 5.4 10 Oeste 31 Oeste 0 -- -- 100
2021-02-11 08:00:00 5.1 15 Oeste 25 Oeste 0 -- -- 100
2021-02-11 07:00:00 4.3 14 Oeste 30 Oeste 0 -- -- 99
2021-02-11 06:00:00 4 17 Oeste 34 Oeste 0 -- -- 98
2021-02-11 05:00:00 3.5 19 Oeste 28 Oeste 0 -- -- 98
2021-02-11 04:00:00 3.7 17 Oeste 37 Oeste 0 -- -- 88
2021-02-11 03:00:00 3.9 21 Oeste 35 Sudoeste 0 -- -- 83
2021-02-11 02:00:00 3.3 13 Oeste 21 Sudoeste 0 -- -- 84
2021-02-11 01:00:00 1.9 9 Oeste 19 Sudoeste 0 -- -- 93
2021-02-11 00:00:00 2.1 13 Oeste 19 Sudoeste 0 -- -- 92
2021-02-10 23:00:00 2.3 11 Sudoeste 17 Oeste 0 -- -- 92
2021-02-10 22:00:00 4 12 Oeste 20 Oeste 0 -- -- 84
2021-02-10 21:00:00 3.4 10 Oeste 19 Sudoeste 0 -- -- 85
2021-02-10 20:00:00 3.4 10 Oeste 17 Oeste 0 -- -- 83
2021-02-10 19:00:00 3.3 7 Oeste 13 Oeste 0 -- -- 83
2021-02-10 18:00:00 5.6 11 Oeste 33 Oeste 0 -- -- 72
2021-02-10 17:00:00 7.4 17 Oeste 34 Noroeste 0 -- -- 64
2021-02-10 16:00:00 8.2 22 Oeste 41 Oeste 0 -- -- 61
2021-02-10 15:00:00 8 21 Oeste 45 Oeste 0 -- -- 61
2021-02-10 14:00:00 7.4 24 Oeste 44 Oeste 0 -- -- 71
2021-02-10 13:00:00 5.4 22 Oeste 41 Oeste 0 -- -- 81
2021-02-10 12:00:00 5 29 Oeste 50 Oeste 0 -- -- 80
2021-02-10 11:00:00 2.7 23 Oeste 50 Oeste 0.2 -- -- 95
2021-02-10 10:00:00 2.1 29 Oeste 48 Oeste 0.2 -- -- 97
2021-02-10 09:00:00 1.8 25 Oeste 48 Oeste 0.6 -- -- 99
2021-02-10 08:00:00 1.5 31 Oeste 51 Oeste 0 -- -- 99
2021-02-10 07:00:00 0.8 28 Oeste 52 Oeste 0.4 -- -- 100
2021-02-10 06:00:00 0.2 19 Oeste 28 Sudoeste 1.6 -- -- 100
2021-02-10 05:00:00 0 14 Sudoeste 30 Sudoeste 1.4 -- -- 100
2021-02-10 04:00:00 1.5 17 Sudoeste 35 Sudoeste 1.4 -- -- 99
2021-02-10 03:00:00 1.6 13 Sudoeste 39 Sudoeste 0.6 -- -- 99
2021-02-10 02:00:00 1.7 22 Oeste 51 Sudoeste 1.4 -- -- 99
2021-02-10 01:00:00 1.4 13 Oeste 30 Sudoeste 0.6 -- -- 100
2021-02-10 00:00:00 0.8 11 Sudoeste 21 Oeste 0.8 -- -- 99
2021-02-09 23:00:00 0.5 13 Sudoeste 21 Sudoeste 1 -- -- 100
2021-02-09 22:00:00 0 12 Oeste 18 Sudoeste 1.6 -- -- 100
2021-02-09 21:00:00 0.2 6 Sudoeste 19 Oeste 2 -- -- 99
2021-02-09 20:00:00 2.2 9 Oeste 27 Sudoeste 0.2 -- -- 96
2021-02-09 19:00:00 2.5 15 Oeste 34 Oeste 0 -- -- 93
2021-02-09 18:00:00 2.5 24 Oeste 40 Oeste 0 -- -- 94
2021-02-09 17:00:00 2.1 19 Oeste 36 Oeste 0 -- -- 98
2021-02-09 16:00:00 1.5 24 Oeste 62 Oeste 3 -- -- 99
2021-02-09 15:00:00 5.4 25 Sudoeste 55 Sudoeste 1.6 -- -- 95
2021-02-09 14:00:00 5.4 27 Sudoeste 53 Sudoeste 0.4 -- -- 93
2021-02-09 13:00:00 5.6 27 Sudoeste 53 Sur 0 -- -- 90
2021-02-09 12:00:00 5.4 28 Sudoeste 58 Sudoeste 0 -- -- 92
2021-02-09 11:00:00 4.9 26 Sudoeste 49 Sudoeste 0 -- -- 94
2021-02-09 10:00:00 3.8 24 Sudoeste 49 Sur 0 -- -- 97
2021-02-09 09:00:00 2.5 18 Sudoeste 37 Sudoeste 0.2 -- -- 99
2021-02-09 08:00:00 2 19 Sudoeste 37 Sudoeste 0.6 -- -- 99
2021-02-09 07:00:00 2 22 Sudoeste 40 Sudoeste 1.2 -- -- 99
2021-02-09 06:00:00 1.7 14 Sudoeste 31 Oeste 1.6 -- -- 99
2021-02-09 05:00:00 2.7 17 Sudoeste 33 Sudoeste 0.2 -- -- 98
2021-02-09 04:00:00 3.1 19 Oeste 39 Sudoeste 0 -- -- 98
2021-02-09 03:00:00 3.3 25 Oeste 43 Oeste 0.4 -- -- 97
2021-02-09 02:00:00 3.7 21 Sudoeste 41 Oeste 0.4 -- -- 98
2021-02-09 01:00:00 3.8 26 Oeste 49 Oeste 1.2 -- -- 97
2021-02-09 00:00:00 3.9 21 Oeste 49 Oeste 0 -- -- 95
2021-02-08 23:00:00 3.6 23 Oeste 42 Oeste 0 -- -- 94
2021-02-08 22:00:00 3.5 23 Oeste 41 Noroeste 0 -- -- 96
2021-02-08 21:00:00 3.4 19 Oeste 41 Oeste 0.2 -- -- 97
2021-02-08 20:00:00 3.3 24 Oeste 49 Oeste 0 -- -- 97
2021-02-08 19:00:00 3.1 24 Oeste 45 Oeste 2.2 -- -- 99
2021-02-08 18:00:00 3.3 22 Oeste 39 Oeste 0.4 -- -- 96
2021-02-08 17:00:00 3.8 24 Oeste 42 Oeste 0 -- -- 95
2021-02-08 16:00:00 4.8 23 Oeste 48 Oeste 0.4 -- -- 91
2021-02-08 15:00:00 5.6 27 Oeste 49 Oeste 0 -- -- 83
2021-02-08 14:00:00 4.9 20 Oeste 39 Oeste 0 -- -- 92
2021-02-08 13:00:00 2.4 27 Oeste 58 Oeste 0.6 -- -- 98
2021-02-08 12:00:00 4.3 26 Oeste 50 Oeste 0.4 -- -- 96
2021-02-08 11:00:00 3.6 35 Oeste 55 Oeste 0 -- -- 93
2021-02-08 10:00:00 3.5 26 Oeste 46 Oeste 0.2 -- -- 96
2021-02-08 09:00:00 2.5 13 Sudoeste 33 Sudoeste 0 -- -- 99
2021-02-08 08:00:00 2.2 17 Sudoeste 33 Sudoeste 0 -- -- 98
2021-02-08 07:00:00 2.4 17 Sudoeste 36 Sudoeste 0.2 -- -- 99
2021-02-08 06:00:00 2.9 22 Sudoeste 35 Sudoeste 0.2 -- -- 99
2021-02-08 05:00:00 2.4 16 Sudoeste 26 Sudoeste 0.4 -- -- 100
2021-02-08 04:00:00 2.5 15 Sudoeste 38 Sudoeste 2.8 -- -- 100
2021-02-08 03:00:00 2.8 13 Sudoeste 32 Sudoeste 1.4 -- -- 100
2021-02-08 02:00:00 2.3 6 Sudoeste 12 Sudoeste 2.6 -- -- 100
2021-02-08 01:00:00 2 7 Sudoeste 24 Sudoeste 0.6 -- -- 100
2021-02-08 00:00:00 1.6 18 Oeste 34 Oeste 0 -- -- 100
2021-02-07 23:00:00 1 22 Oeste 41 Oeste 0 -- -- 100
2021-02-07 22:00:00 0.9 20 Oeste 41 Oeste 0.2 -- -- 98
2021-02-07 21:00:00 1.4 20 Oeste 36 Oeste 0 -- -- 97
2021-02-07 20:00:00 2.1 22 Oeste 39 Oeste 0 -- -- 95
2021-02-07 19:00:00 2.8 22 Oeste 42 Oeste 0 -- -- 84
2021-02-07 18:00:00 4 24 Oeste 43 Oeste 0 -- -- 73
2021-02-07 17:00:00 4.7 22 Oeste 45 Oeste 0 -- -- 70
2021-02-07 16:00:00 5.2 26 Oeste 47 Oeste 0 -- -- 64
2021-02-07 15:00:00 5.4 30 Oeste 45 Noroeste 0 -- -- 61
2021-02-07 14:00:00 5.4 21 Oeste 39 Oeste 0 -- -- 59
2021-02-07 13:00:00 5.2 21 Noroeste 38 Oeste 0 -- -- 63
2021-02-07 12:00:00 4.6 20 Oeste 37 Oeste 0 -- -- 66
2021-02-07 11:00:00 3.9 15 Oeste 24 Oeste 0 -- -- 69
2021-02-07 10:00:00 1.3 13 Oeste 23 Oeste 0 -- -- 78
2021-02-07 09:00:00 0.7 5 Oeste 10 Noroeste 0 -- -- 87
2021-02-07 08:00:00 -2.7 6 Oeste 10 Oeste 0 -- -- 99
2021-02-07 07:00:00 -1.4 8 Oeste 14 Oeste 0 -- -- 98
2021-02-07 06:00:00 -0.5 8 Oeste 13 Oeste 0 -- -- 90
2021-02-07 05:00:00 0.2 5 Noroeste 9 Noroeste 0 -- -- 96
2021-02-07 04:00:00 0.8 4 Noroeste 10 Oeste 0 -- -- 93
2021-02-07 03:00:00 1.8 4 Sudoeste 7 Sur 0 -- -- 98
2021-02-07 02:00:00 2.2 4 Sudeste 5 Sudeste 0 -- -- 96
2021-02-07 01:00:00 2.2 0 Calma 9 Oeste 0 -- -- 95
2021-02-07 00:00:00 2.1 3 Oeste 5 Oeste 0 -- -- 96
2021-02-06 23:00:00 2.1 3 Noroeste 17 Norte 0 -- -- 94
2021-02-06 22:00:00 3.2 9 Norte 17 Nordeste 0 -- -- 82
2021-02-06 21:00:00 3.2 7 Nordeste 17 Nordeste 0 -- -- 83
2021-02-06 20:00:00 3.5 10 Nordeste 17 Nordeste 0 -- -- 84
2021-02-06 19:00:00 3.7 6 Nordeste 18 Nordeste 0.2 -- -- 88
2021-02-06 18:00:00 4.5 9 Nordeste 17 Nordeste 0 -- -- 88
2021-02-06 17:00:00 5.3 9 Este 14 Este 0.2 -- -- 90
2021-02-06 16:00:00 4.9 10 Norte 24 Noroeste 1.4 -- -- 96
2021-02-06 15:00:00 8.6 11 Oeste 23 Oeste 0 -- -- 74
2021-02-06 14:00:00 7.9 11 Noroeste 22 Oeste 0 -- -- 79
2021-02-06 13:00:00 8.4 11 Oeste 26 Noroeste 0 -- -- 77
2021-02-06 12:00:00 8.8 15 Oeste 26 Sudoeste 0 -- -- 79
2021-02-06 11:00:00 7.1 14 Oeste 26 Oeste 0 -- -- 87
2021-02-06 10:00:00 5.7 13 Sudoeste 20 Sur 0 -- -- 94
2021-02-06 09:00:00 5.1 10 Sur 17 Sur 0 -- -- 97
2021-02-06 08:00:00 4.6 6 Sur 13 Sudoeste 0 -- -- 100
2021-02-06 07:00:00 4.8 5 Sudeste 8 Sudeste 0 -- -- 100
2021-02-06 06:00:00 4.8 6 Sudeste 9 Sudeste 0 -- -- 100
2021-02-06 05:00:00 4.6 2 Este 8 Este 0 -- -- 100
2021-02-06 04:00:00 4.6 4 Este 16 Sudeste 0 -- -- 100
2021-02-06 03:00:00 4.2 0 Calma 6 Norte 0 -- -- 100
2021-02-06 02:00:00 4.6 3 Sudeste 32 Sur 1 -- -- 99
2021-02-06 01:00:00 5.7 19 Sur 37 Sudoeste 2.4 -- -- 96
2021-02-06 00:00:00 5.7 11 Sudeste 17 Sudeste 0 -- -- 99
2021-02-05 23:00:00 5.5 9 Este 19 Este 0 -- -- 98
2021-02-05 22:00:00 5.9 10 Este 24 Este 0 -- -- 98
2021-02-05 21:00:00 5.9 11 Nordeste 24 Este 0 -- -- 98
2021-02-05 20:00:00 6 12 Este 25 Este 0 -- -- 96
2021-02-05 19:00:00 7.2 14 Este 28 Este 0 -- -- 89
2021-02-05 18:00:00 9.8 15 Nordeste 25 Este 0 -- -- 78
2021-02-05 17:00:00 14.5 15 Este 24 Este 0 -- -- 49
2021-02-05 16:00:00 15.8 11 Sudeste 25 Sur 0 -- -- 44
2021-02-05 15:00:00 16 14 Sudeste 26 Sudeste 0 -- -- 42
2021-02-05 14:00:00 15.5 17 Sudeste 31 Sudeste 0 -- -- 46
2021-02-05 13:00:00 15.2 16 Sudeste 26 Sudeste 0 -- -- 49
2021-02-05 12:00:00 12.3 18 Este 30 Sudeste 0 -- -- 58
2021-02-05 11:00:00 11.6 15 Este 22 Este 0 -- -- 63
2021-02-05 10:00:00 9.3 8 Nordeste 15 Nordeste 0 -- -- 73
2021-02-05 09:00:00 4.4 6 Norte 9 Noroeste 0 -- -- 94
2021-02-05 08:00:00 3.9 5 Norte 11 Nordeste 0 -- -- 96
2021-02-05 07:00:00 4.1 8 Nordeste 10 Nordeste 0 -- -- 97
2021-02-05 06:00:00 4.4 3 Nordeste 17 Sudeste 0 -- -- 95
2021-02-05 05:00:00 6.1 10 Este 15 Este 0 -- -- 90
2021-02-05 04:00:00 4.9 9 Este 12 Este 0 -- -- 95
2021-02-05 03:00:00 5.1 10 Este 13 Este 0 -- -- 96
2021-02-05 02:00:00 4.6 6 Este 9 Este 0 -- -- 95
2021-02-05 01:00:00 5.6 4 Norte 11 Norte 0 -- -- 92
2021-02-05 00:00:00 5.1 2 Nordeste 6 Sudoeste 0 -- -- 93
2021-02-04 23:00:00 6.1 3 Sur 8 Sur 0 -- -- 87
2021-02-04 22:00:00 7.1 6 Sur 21 Sur 0 -- -- 83
2021-02-04 21:00:00 7.5 8 Sudoeste 17 Sudoeste 0 -- -- 80
2021-02-04 20:00:00 7.6 8 Sudoeste 25 Sur 0 -- -- 77
2021-02-04 19:00:00 9.1 15 Sudoeste 26 Sudoeste 0 -- -- 75
2021-02-04 18:00:00 10.3 10 Sudoeste 32 Sur 0 -- -- 69
2021-02-04 17:00:00 12 13 Sur 30 Sur 0 -- -- 59
2021-02-04 16:00:00 12.6 18 Sur 38 Sur 0 -- -- 56
2021-02-04 15:00:00 13.3 12 Sur 26 Sur 0 -- -- 59
2021-02-04 14:00:00 12 11 Sudeste 22 Sudeste 0 -- -- 74
2021-02-04 13:00:00 10.7 11 Sudeste 22 Sudeste 0 -- -- 80
2021-02-04 12:00:00 9.4 11 Sudeste 20 Sudeste 0 -- -- 94
2021-02-04 11:00:00 7.6 6 Sudeste 10 Este 0 -- -- 100
2021-02-04 10:00:00 6.3 4 Este 6 Este 0 -- -- 99
2021-02-04 09:00:00 6 0 Calma 9 Oeste 0 -- -- 100
2021-02-04 08:00:00 6 6 Oeste 9 Oeste 0.2 -- -- 100
2021-02-04 07:00:00 6.3 4 Oeste 11 Oeste 0.4 -- -- 100
2021-02-04 06:00:00 6.7 8 Sudoeste 13 Sudoeste 0 -- -- 100
2021-02-04 05:00:00 6.9 7 Sudoeste 12 Sudoeste 0 -- -- 100
2021-02-04 04:00:00 7.1 5 Sudoeste 14 Sudoeste 0 -- -- 100
2021-02-04 03:00:00 7.3 5 Sudoeste 13 Oeste 0.2 -- -- 100
2021-02-04 02:00:00 7.5 8 Sudoeste 26 Sur 0 -- -- 99
2021-02-04 01:00:00 7.7 13 Sur 31 Sur 0.2 -- -- 99
2021-02-04 00:00:00 7.6 12 Sur 21 Sudeste 0.4 -- -- 100
2021-02-03 23:00:00 7.6 9 Sur 17 Sur 0 -- -- 96
2021-02-03 22:00:00 7.5 11 Sur 21 Sur 0 -- -- 94
2021-02-03 21:00:00 6.4 9 Sudoeste 24 Sudoeste 0 -- -- 95
2021-02-03 20:00:00 6.9 11 Sudoeste 24 Sudoeste 0 -- -- 93
2021-02-03 19:00:00 7.4 14 Sudoeste 26 Sudoeste 0 -- -- 90
2021-02-03 18:00:00 8.4 17 Sudoeste 31 Sudoeste 0 -- -- 85
2021-02-03 17:00:00 9.3 16 Sudoeste 32 Sudoeste 0 -- -- 80
2021-02-03 16:00:00 9.5 18 Sudoeste 35 Sudoeste 0 -- -- 80
2021-02-03 15:00:00 9.7 19 Sudoeste 34 Sudoeste 0 -- -- 80
2021-02-03 14:00:00 9.5 23 Sudoeste 39 Sudoeste 0 -- -- 81
2021-02-03 13:00:00 8.7 22 Sudoeste 36 Sudoeste 0 -- -- 84
2021-02-03 12:00:00 8.3 23 Sudoeste 47 Sudoeste 0 -- -- 84
2021-02-03 11:00:00 8.4 25 Sudoeste 48 Sur 0 -- -- 82
2021-02-03 10:00:00 7.3 21 Sudoeste 35 Sudoeste 0 -- -- 87
2021-02-03 09:00:00 5.4 20 Sudoeste 34 Sudoeste 0 -- -- 94
2021-02-03 08:00:00 5 18 Sudoeste 34 Sudoeste 0 -- -- 95
2021-02-03 07:00:00 4.9 17 Sudoeste 30 Sur 0 -- -- 95
2021-02-03 06:00:00 4.6 17 Sudoeste 30 Sudoeste 0 -- -- 95
2021-02-03 05:00:00 4.4 15 Sudoeste 29 Sudoeste 0 -- -- 95
2021-02-03 04:00:00 4.8 16 Sudoeste 30 Sudoeste 0 -- -- 94
2021-02-03 03:00:00 5.3 16 Sudoeste 40 Sudoeste 0 -- -- 91
2021-02-03 02:00:00 6.7 17 Sudoeste 32 Sudoeste 0 -- -- 87
2021-02-03 01:00:00 7 17 Sudoeste 30 Sudoeste 0 -- -- 87
2021-02-03 00:00:00 7.1 15 Sudoeste 30 Sudoeste 0 -- -- 89
2021-02-02 23:00:00 6.9 17 Sudoeste 40 Sudoeste 0 -- -- 91
2021-02-02 22:00:00 7.1 19 Sudoeste 36 Sudoeste 0 -- -- 92
2021-02-02 21:00:00 7.8 16 Sudoeste 36 Sur 0 -- -- 90
2021-02-02 20:00:00 7.2 16 Sudoeste 32 Sudoeste 0 -- -- 90
2021-02-02 19:00:00 7.1 14 Sudoeste 27 Sudoeste 0 -- -- 90
2021-02-02 18:00:00 8.3 13 Sudoeste 27 Sur 0 -- -- 83
2021-02-02 17:00:00 9.4 15 Sudoeste 25 Sur 0 -- -- 81
2021-02-02 16:00:00 10.3 15 Sudoeste 27 Sudoeste 0 -- -- 76
2021-02-02 15:00:00 10.4 13 Sudoeste 26 Sudoeste 0 -- -- 77
2021-02-02 14:00:00 11 17 Sudoeste 31 Sudoeste 0 -- -- 74
2021-02-02 13:00:00 10 14 Oeste 31 Oeste 0 -- -- 80
2021-02-02 12:00:00 8.9 13 Sudoeste 21 Sur 0 -- -- 87
2021-02-02 11:00:00 7 10 Sudoeste 24 Oeste 0 -- -- 95
2021-02-02 10:00:00 7.5 17 Oeste 35 Oeste 0 -- -- 97
2021-02-02 09:00:00 7.2 24 Oeste 47 Oeste 0 -- -- 98
2021-02-02 08:00:00 7.2 25 Oeste 48 Oeste 0 -- -- 99
2021-02-02 07:00:00 7.2 26 Oeste 46 Oeste 0 -- -- 98
2021-02-02 06:00:00 7.4 34 Oeste 54 Oeste 0 -- -- 99
2021-02-02 05:00:00 7.1 30 Oeste 51 Oeste 0 -- -- 100
2021-02-02 04:00:00 6.4 28 Oeste 47 Oeste 0 -- -- 100
2021-02-02 03:00:00 6.3 19 Oeste 37 Oeste 0 -- -- 97
2021-02-02 02:00:00 6.9 18 Oeste 34 Oeste 0 -- -- 91
2021-02-02 01:00:00 7 16 Oeste 29 Oeste 0 -- -- 90
2021-02-02 00:00:00 6.9 18 Oeste 33 Oeste 0 -- -- 90
2021-02-01 23:00:00 6.8 15 Oeste 28 Oeste 0 -- -- 91
2021-02-01 22:00:00 6.8 19 Oeste 34 Oeste 0 -- -- 90
2021-02-01 21:00:00 7.3 20 Oeste 35 Noroeste 0 -- -- 86
2021-02-01 20:00:00 7.9 19 Oeste 42 Oeste 0 -- -- 83
2021-02-01 19:00:00 8.1 30 Oeste 53 Oeste 0 -- -- 81
2021-02-01 18:00:00 8.6 35 Oeste 58 Oeste 0 -- -- 79
2021-02-01 17:00:00 9.1 34 Oeste 57 Oeste 0 -- -- 78
2021-02-01 16:00:00 9.9 32 Oeste 55 Oeste 0 -- -- 77
2021-02-01 15:00:00 9.9 30 Oeste 56 Oeste 0 -- -- 77
2021-02-01 14:00:00 8.6 32 Oeste 56 Oeste 0 -- -- 82
2021-02-01 13:00:00 8.8 34 Oeste 61 Oeste 0 -- -- 81
2021-02-01 12:00:00 7.7 38 Oeste 68 Oeste 0 -- -- 84
2021-02-01 11:00:00 6.7 41 Oeste 64 Oeste 0 -- -- 86
2021-02-01 10:00:00 6.2 34 Oeste 62 Oeste 0 -- -- 87
2021-02-01 09:00:00 5.9 34 Oeste 68 Oeste 0 -- -- 86
2021-02-01 08:00:00 5.9 43 Oeste 71 Oeste 0 -- -- 84
2021-02-01 07:00:00 5.8 44 Oeste 73 Oeste 0 -- -- 87
2021-02-01 06:00:00 5.7 37 Oeste 58 Oeste 0 -- -- 87
2021-02-01 05:00:00 6.2 38 Oeste 68 Oeste 0 -- -- 83
2021-02-01 04:00:00 6.4 39 Oeste 71 Oeste 0 -- -- 84
2021-02-01 03:00:00 6.9 40 Oeste 67 Oeste 0 -- -- 84
2021-02-01 02:00:00 7.5 35 Oeste 64 Oeste 0 -- -- 82
2021-02-01 01:00:00 7.9 36 Oeste 64 Oeste 0 -- -- 83
2021-02-01 00:00:00 8.1 36 Oeste 68 Oeste 0 -- -- 84
2021-01-31 23:00:00 8.4 32 Oeste 65 Oeste 0 -- -- 83
2021-01-31 22:00:00 8.8 35 Oeste 61 Oeste 0 -- -- 85
2021-01-31 21:00:00 8.9 36 Oeste 60 Oeste 0 -- -- 89
2021-01-31 20:00:00 8.7 34 Oeste 57 Sudoeste 0 -- -- 92
2021-01-31 19:00:00 8.3 24 Oeste 50 Oeste 0.2 -- -- 95
2021-01-31 18:00:00 8.5 26 Oeste 48 Oeste 0 -- -- 98
2021-01-31 17:00:00 8.2 25 Oeste 53 Oeste 0.2 -- -- 98
2021-01-31 16:00:00 7.9 21 Oeste 37 Noroeste 0.4 -- -- 98
2021-01-31 15:00:00 7.3 26 Oeste 46 Oeste 0.2 -- -- 98
2021-01-31 14:00:00 7 25 Oeste 50 Noroeste 0.2 -- -- 98
2021-01-31 13:00:00 6.5 26 Oeste 47 Oeste 0 -- -- 98
2021-01-31 12:00:00 5.5 27 Oeste 53 Oeste 0 -- -- 98
2021-01-31 11:00:00 4.9 33 Oeste 55 Oeste 0 -- -- 96
2021-01-31 10:00:00 3.7 23 Oeste 45 Oeste 0 -- -- 95
2021-01-31 09:00:00 3.5 27 Oeste 51 Oeste 0 -- -- 92
2021-01-31 08:00:00 3.4 34 Oeste 59 Oeste 0 -- -- 90
2021-01-31 07:00:00 3.4 37 Oeste 59 Oeste 0 -- -- 89
2021-01-31 06:00:00 3.5 37 Oeste 59 Oeste 0 -- -- 88
2021-01-31 05:00:00 3.4 26 Oeste 54 Oeste 0 -- -- 91
2021-01-31 04:00:00 3.5 33 Oeste 54 Oeste 0 -- -- 91
2021-01-31 03:00:00 3.2 31 Oeste 53 Oeste 0 -- -- 92
2021-01-31 02:00:00 3 29 Oeste 57 Oeste 0 -- -- 93
2021-01-31 01:00:00 2.8 33 Oeste 52 Oeste 0.2 -- -- 96
2021-01-31 00:00:00 2.7 23 Oeste 47 Oeste 0 -- -- 96
2021-01-30 23:00:00 2.9 25 Oeste 54 Oeste 0.4 -- -- 97
2021-01-30 22:00:00 3.3 31 Oeste 60 Oeste 0.2 -- -- 97
2021-01-30 21:00:00 3.3 32 Oeste 51 Noroeste 0.8 -- -- 97
2021-01-30 20:00:00 3.5 26 Oeste 56 Oeste 0.2 -- -- 95
2021-01-30 19:00:00 3.8 39 Oeste 63 Oeste 1.4 -- -- 94
2021-01-30 18:00:00 3.7 32 Oeste 57 Oeste 0.8 -- -- 94
2021-01-30 17:00:00 4.6 23 Oeste 48 Oeste 0.4 -- -- 91
2021-01-30 16:00:00 5.4 29 Oeste 51 Oeste 0.2 -- -- 82
2021-01-30 15:00:00 6 27 Oeste 69 Oeste 0.2 -- -- 85
2021-01-30 14:00:00 7.7 47 Oeste 87 Oeste 0 -- -- 62
2021-01-30 13:00:00 7.2 39 Oeste 73 Oeste 0.2 -- -- 74
2021-01-30 12:00:00 4.7 37 Oeste 75 Oeste 0.4 -- -- 91
2021-01-30 11:00:00 6 28 Oeste 50 Oeste 0 -- -- 89
2021-01-30 10:00:00 5.2 28 Oeste 62 Oeste 0 -- -- 94
2021-01-30 09:00:00 5 22 Oeste 51 Oeste 0.6 -- -- 98
2021-01-30 08:00:00 5.1 24 Oeste 44 Oeste 0 -- -- 96
2021-01-30 07:00:00 4.7 17 Sudoeste 56 Sudoeste 3.2 -- -- 97
2021-01-30 06:00:00 6.5 28 Oeste 52 Sudoeste 2 -- -- 99
2021-01-30 05:00:00 6.9 20 Sudoeste 42 Oeste 0 -- -- 96
2021-01-30 04:00:00 6 14 Sudoeste 22 Oeste 0 -- -- 100
2021-01-30 03:00:00 5.8 14 Sudoeste 26 Sudoeste 0 -- -- 100
2021-01-30 02:00:00 5.5 13 Sudoeste 23 Sudoeste 0 -- -- 100
2021-01-30 01:00:00 4.8 9 Sudoeste 19 Sudoeste 0 -- -- 100
2021-01-30 00:00:00 4.4 11 Sudoeste 19 Sudoeste 0 -- -- 100